sensor_id;sensor_type;location;lat;lon;timestamp;P1;durP1;ratioP1;P2;durP2;ratioP2
75847;SDS011;65750;47.540;19.090;2023-02-10T00:01:02;18.97;;;10.87;;
75847;SDS011;65750;47.540;19.090;2023-02-10T00:03:30;17.73;;;11.25;;
75847;SDS011;65750;47.540;19.090;2023-02-10T00:05:57;18.85;;;10.95;;
75847;SDS011;65750;47.540;19.090;2023-02-10T00:08:25;18.02;;;11.20;;
75847;SDS011;65750;47.540;19.090;2023-02-10T00:10:55;18.50;;;11.00;;
75847;SDS011;65750;47.540;19.090;2023-02-10T00:13:23;18.50;;;10.80;;
75847;SDS011;65750;47.540;19.090;2023-02-10T00:15:50;18.05;;;11.55;;
75847;SDS011;65750;47.540;19.090;2023-02-10T00:18:19;17.98;;;10.85;;
75847;SDS011;65750;47.540;19.090;2023-02-10T00:20:47;17.33;;;11.23;;
75847;SDS011;65750;47.540;19.090;2023-02-10T00:23:13;16.40;;;10.52;;
75847;SDS011;65750;47.540;19.090;2023-02-10T00:25:41;17.87;;;10.13;;
75847;SDS011;65750;47.540;19.090;2023-02-10T00:28:08;17.00;;;10.52;;
75847;SDS011;65750;47.540;19.090;2023-02-10T00:30:37;19.77;;;10.93;;
75847;SDS011;65750;47.540;19.090;2023-02-10T00:33:04;18.90;;;10.80;;
75847;SDS011;65750;47.540;19.090;2023-02-10T00:35:33;16.62;;;10.82;;
75847;SDS011;65750;47.540;19.090;2023-02-10T00:38:00;18.30;;;11.20;;
75847;SDS011;65750;47.540;19.090;2023-02-10T00:40:28;16.85;;;10.70;;
75847;SDS011;65750;47.540;19.090;2023-02-10T00:42:55;17.80;;;11.10;;
75847;SDS011;65750;47.540;19.090;2023-02-10T00:45:22;16.70;;;10.90;;
75847;SDS011;65750;47.540;19.090;2023-02-10T00:47:49;19.67;;;11.27;;
75847;SDS011;65750;47.540;19.090;2023-02-10T00:50:17;17.30;;;10.77;;
75847;SDS011;65750;47.540;19.090;2023-02-10T00:52:45;18.25;;;11.05;;
75847;SDS011;65750;47.540;19.090;2023-02-10T00:55:12;17.25;;;10.73;;
75847;SDS011;65750;47.540;19.090;2023-02-10T00:57:39;16.48;;;10.82;;
75847;SDS011;65750;47.540;19.090;2023-02-10T01:00:07;20.00;;;11.30;;
75847;SDS011;65750;47.540;19.090;2023-02-10T01:02:35;16.03;;;10.53;;
75847;SDS011;65750;47.540;19.090;2023-02-10T01:05:02;16.42;;;10.70;;
75847;SDS011;65750;47.540;19.090;2023-02-10T01:07:29;17.37;;;11.30;;
75847;SDS011;65750;47.540;19.090;2023-02-10T01:09:58;16.92;;;11.05;;
75847;SDS011;65750;47.540;19.090;2023-02-10T01:12:25;16.98;;;11.35;;
75847;SDS011;65750;47.540;19.090;2023-02-10T01:14:52;16.00;;;10.80;;
75847;SDS011;65750;47.540;19.090;2023-02-10T01:17:20;17.52;;;11.35;;
75847;SDS011;65750;47.540;19.090;2023-02-10T01:19:47;16.80;;;10.82;;
75847;SDS011;65750;47.540;19.090;2023-02-10T01:22:16;18.90;;;10.75;;
75847;SDS011;65750;47.540;19.090;2023-02-10T01:24:43;17.87;;;10.98;;
75847;SDS011;65750;47.540;19.090;2023-02-10T01:27:12;16.60;;;10.83;;
75847;SDS011;65750;47.540;19.090;2023-02-10T01:29:39;18.15;;;11.30;;
75847;SDS011;65750;47.540;19.090;2023-02-10T01:32:06;16.75;;;10.85;;
75847;SDS011;65750;47.540;19.090;2023-02-10T01:34:35;17.08;;;10.77;;
75847;SDS011;65750;47.540;19.090;2023-02-10T01:37:04;16.73;;;10.63;;
75847;SDS011;65750;47.540;19.090;2023-02-10T01:39:31;16.33;;;10.77;;
75847;SDS011;65750;47.540;19.090;2023-02-10T01:41:59;16.30;;;10.48;;
75847;SDS011;65750;47.540;19.090;2023-02-10T01:47:41;17.73;;;11.05;;
75847;SDS011;65750;47.540;19.090;2023-02-10T01:50:09;16.73;;;10.95;;
75847;SDS011;65750;47.540;19.090;2023-02-10T01:52:37;16.23;;;10.50;;
75847;SDS011;65750;47.540;19.090;2023-02-10T01:55:06;16.77;;;10.65;;
75847;SDS011;65750;47.540;19.090;2023-02-10T01:57:34;15.93;;;10.90;;
75847;SDS011;65750;47.540;19.090;2023-02-10T02:00:03;15.70;;;10.73;;
75847;SDS011;65750;47.540;19.090;2023-02-10T02:02:37;17.83;;;10.90;;
75847;SDS011;65750;47.540;19.090;2023-02-10T02:05:06;17.57;;;10.43;;
75847;SDS011;65750;47.540;19.090;2023-02-10T02:07:48;16.37;;;11.20;;
75847;SDS011;65750;47.540;19.090;2023-02-10T02:10:16;15.80;;;10.63;;
75847;SDS011;65750;47.540;19.090;2023-02-10T02:12:45;17.08;;;10.60;;
75847;SDS011;65750;47.540;19.090;2023-02-10T02:15:19;17.40;;;11.27;;
75847;SDS011;65750;47.540;19.090;2023-02-10T02:17:50;17.33;;;10.90;;
75847;SDS011;65750;47.540;19.090;2023-02-10T02:20:38;15.63;;;10.77;;
75847;SDS011;65750;47.540;19.090;2023-02-10T02:23:25;16.15;;;10.63;;
75847;SDS011;65750;47.540;19.090;2023-02-10T02:26:04;18.10;;;11.05;;
75847;SDS011;65750;47.540;19.090;2023-02-10T02:28:54;16.42;;;10.65;;
75847;SDS011;65750;47.540;19.090;2023-02-10T02:31:43;17.83;;;10.93;;
75847;SDS011;65750;47.540;19.090;2023-02-10T02:34:17;17.65;;;10.73;;
75847;SDS011;65750;47.540;19.090;2023-02-10T02:36:49;18.20;;;11.38;;
75847;SDS011;65750;47.540;19.090;2023-02-10T02:39:20;17.02;;;10.82;;
75847;SDS011;65750;47.540;19.090;2023-02-10T02:41:57;15.80;;;10.73;;
75847;SDS011;65750;47.540;19.090;2023-02-10T02:44:26;16.87;;;11.33;;
75847;SDS011;65750;47.540;19.090;2023-02-10T02:46:57;16.15;;;10.80;;
75847;SDS011;65750;47.540;19.090;2023-02-10T02:49:29;16.37;;;10.63;;
75847;SDS011;65750;47.540;19.090;2023-02-10T02:52:06;17.73;;;10.98;;
75847;SDS011;65750;47.540;19.090;2023-02-10T02:54:39;16.73;;;11.12;;
75847;SDS011;65750;47.540;19.090;2023-02-10T02:57:11;16.23;;;10.67;;
75847;SDS011;65750;47.540;19.090;2023-02-10T02:59:43;15.93;;;10.80;;
75847;SDS011;65750;47.540;19.090;2023-02-10T03:02:15;17.52;;;11.00;;
75847;SDS011;65750;47.540;19.090;2023-02-10T03:04:44;16.48;;;10.52;;
75847;SDS011;65750;47.540;19.090;2023-02-10T03:07:12;16.12;;;10.45;;
75847;SDS011;65750;47.540;19.090;2023-02-10T03:09:40;16.17;;;10.60;;
75847;SDS011;65750;47.540;19.090;2023-02-10T03:12:10;16.12;;;10.40;;
75847;SDS011;65750;47.540;19.090;2023-02-10T03:14:37;16.65;;;10.43;;
75847;SDS011;65750;47.540;19.090;2023-02-10T03:17:05;16.48;;;10.80;;
75847;SDS011;65750;47.540;19.090;2023-02-10T03:19:33;16.45;;;10.73;;
75847;SDS011;65750;47.540;19.090;2023-02-10T03:22:01;15.53;;;10.40;;
75847;SDS011;65750;47.540;19.090;2023-02-10T03:24:29;16.75;;;10.43;;
75847;SDS011;65750;47.540;19.090;2023-02-10T03:26:56;16.85;;;11.02;;
75847;SDS011;65750;47.540;19.090;2023-02-10T03:29:23;16.83;;;10.52;;
75847;SDS011;65750;47.540;19.090;2023-02-10T03:31:51;16.10;;;10.25;;
75847;SDS011;65750;47.540;19.090;2023-02-10T03:34:18;17.77;;;10.90;;
75847;SDS011;65750;47.540;19.090;2023-02-10T03:36:46;16.80;;;11.07;;
75847;SDS011;65750;47.540;19.090;2023-02-10T03:39:13;16.87;;;11.25;;
75847;SDS011;65750;47.540;19.090;2023-02-10T03:41:40;18.05;;;10.90;;
75847;SDS011;65750;47.540;19.090;2023-02-10T03:44:07;16.85;;;10.70;;
75847;SDS011;65750;47.540;19.090;2023-02-10T03:46:35;16.63;;;11.10;;
75847;SDS011;65750;47.540;19.090;2023-02-10T03:49:02;16.23;;;10.75;;
75847;SDS011;65750;47.540;19.090;2023-02-10T03:51:29;15.63;;;10.45;;
75847;SDS011;65750;47.540;19.090;2023-02-10T03:53:58;16.75;;;10.38;;
75847;SDS011;65750;47.540;19.090;2023-02-10T03:56:25;16.10;;;10.65;;
75847;SDS011;65750;47.540;19.090;2023-02-10T03:58:52;16.13;;;10.83;;
75847;SDS011;65750;47.540;19.090;2023-02-10T04:01:19;18.27;;;10.50;;
75847;SDS011;65750;47.540;19.090;2023-02-10T04:03:47;15.68;;;10.63;;
75847;SDS011;65750;47.540;19.090;2023-02-10T04:06:14;16.45;;;10.73;;
75847;SDS011;65750;47.540;19.090;2023-02-10T04:08:41;17.52;;;10.80;;
75847;SDS011;65750;47.540;19.090;2023-02-10T04:11:10;16.83;;;11.20;;
75847;SDS011;65750;47.540;19.090;2023-02-10T04:13:37;14.70;;;10.18;;
75847;SDS011;65750;47.540;19.090;2023-02-10T04:16:05;15.90;;;10.80;;
75847;SDS011;65750;47.540;19.090;2023-02-10T04:18:33;17.10;;;10.88;;
75847;SDS011;65750;47.540;19.090;2023-02-10T04:21:01;16.37;;;10.68;;
75847;SDS011;65750;47.540;19.090;2023-02-10T04:23:29;15.83;;;10.13;;
75847;SDS011;65750;47.540;19.090;2023-02-10T04:25:57;16.02;;;10.20;;
75847;SDS011;65750;47.540;19.090;2023-02-10T04:28:25;15.23;;;10.55;;
75847;SDS011;65750;47.540;19.090;2023-02-10T04:30:53;16.10;;;10.25;;
75847;SDS011;65750;47.540;19.090;2023-02-10T04:33:21;16.20;;;11.12;;
75847;SDS011;65750;47.540;19.090;2023-02-10T04:35:50;18.87;;;11.80;;
75847;SDS011;65750;47.540;19.090;2023-02-10T04:38:17;17.05;;;11.80;;
75847;SDS011;65750;47.540;19.090;2023-02-10T04:40:45;18.02;;;11.60;;
75847;SDS011;65750;47.540;19.090;2023-02-10T04:43:12;17.90;;;11.02;;
75847;SDS011;65750;47.540;19.090;2023-02-10T04:45:41;18.05;;;11.57;;
75847;SDS011;65750;47.540;19.090;2023-02-10T04:48:08;17.13;;;11.30;;
75847;SDS011;65750;47.540;19.090;2023-02-10T04:50:36;15.00;;;10.60;;
75847;SDS011;65750;47.540;19.090;2023-02-10T04:53:03;16.50;;;11.02;;
75847;SDS011;65750;47.540;19.090;2023-02-10T04:55:30;17.17;;;11.55;;
75847;SDS011;65750;47.540;19.090;2023-02-10T04:57:57;16.48;;;11.30;;
75847;SDS011;65750;47.540;19.090;2023-02-10T05:00:25;18.23;;;11.03;;
75847;SDS011;65750;47.540;19.090;2023-02-10T05:02:54;17.90;;;11.25;;
75847;SDS011;65750;47.540;19.090;2023-02-10T05:05:21;16.80;;;10.75;;
75847;SDS011;65750;47.540;19.090;2023-02-10T05:07:50;18.17;;;10.73;;
75847;SDS011;65750;47.540;19.090;2023-02-10T05:10:17;18.35;;;11.73;;
75847;SDS011;65750;47.540;19.090;2023-02-10T05:12:44;15.80;;;10.70;;
75847;SDS011;65750;47.540;19.090;2023-02-10T05:15:11;17.48;;;11.30;;
75847;SDS011;65750;47.540;19.090;2023-02-10T05:17:57;19.67;;;10.93;;
75847;SDS011;65750;47.540;19.090;2023-02-10T05:20:24;19.98;;;11.10;;
75847;SDS011;65750;47.540;19.090;2023-02-10T05:22:51;18.25;;;11.38;;
75847;SDS011;65750;47.540;19.090;2023-02-10T05:25:19;17.17;;;11.53;;
75847;SDS011;65750;47.540;19.090;2023-02-10T05:27:46;17.60;;;11.38;;
75847;SDS011;65750;47.540;19.090;2023-02-10T05:30:13;17.90;;;11.05;;
75847;SDS011;65750;47.540;19.090;2023-02-10T05:32:41;17.33;;;11.43;;
75847;SDS011;65750;47.540;19.090;2023-02-10T05:35:09;16.12;;;10.75;;
75847;SDS011;65750;47.540;19.090;2023-02-10T05:37:36;16.60;;;10.47;;
75847;SDS011;65750;47.540;19.090;2023-02-10T05:40:04;16.70;;;11.52;;
75847;SDS011;65750;47.540;19.090;2023-02-10T05:42:32;16.60;;;10.85;;
75847;SDS011;65750;47.540;19.090;2023-02-10T05:44:59;16.42;;;11.25;;
75847;SDS011;65750;47.540;19.090;2023-02-10T05:47:26;17.35;;;11.07;;
75847;SDS011;65750;47.540;19.090;2023-02-10T05:49:53;17.33;;;11.10;;
75847;SDS011;65750;47.540;19.090;2023-02-10T05:52:22;16.70;;;11.27;;
75847;SDS011;65750;47.540;19.090;2023-02-10T05:54:49;16.73;;;11.12;;
75847;SDS011;65750;47.540;19.090;2023-02-10T05:57:16;18.40;;;11.32;;
75847;SDS011;65750;47.540;19.090;2023-02-10T05:59:43;17.37;;;11.07;;
75847;SDS011;65750;47.540;19.090;2023-02-10T06:02:11;16.40;;;10.37;;
75847;SDS011;65750;47.540;19.090;2023-02-10T06:04:38;19.52;;;11.70;;
75847;SDS011;65750;47.540;19.090;2023-02-10T06:07:05;17.23;;;11.30;;
75847;SDS011;65750;47.540;19.090;2023-02-10T06:09:33;17.10;;;11.52;;
75847;SDS011;65750;47.540;19.090;2023-02-10T06:12:01;17.60;;;11.38;;
75847;SDS011;65750;47.540;19.090;2023-02-10T06:14:29;17.30;;;10.93;;
75847;SDS011;65750;47.540;19.090;2023-02-10T06:16:56;17.08;;;11.98;;
75847;SDS011;65750;47.540;19.090;2023-02-10T06:19:23;19.42;;;12.10;;
75847;SDS011;65750;47.540;19.090;2023-02-10T06:21:51;20.12;;;11.50;;
75847;SDS011;65750;47.540;19.090;2023-02-10T06:24:18;18.05;;;11.10;;
75847;SDS011;65750;47.540;19.090;2023-02-10T06:26:47;22.43;;;11.80;;
75847;SDS011;65750;47.540;19.090;2023-02-10T06:29:14;19.73;;;12.45;;
75847;SDS011;65750;47.540;19.090;2023-02-10T06:31:41;20.35;;;13.57;;
75847;SDS011;65750;47.540;19.090;2023-02-10T06:34:09;19.95;;;12.63;;
75847;SDS011;65750;47.540;19.090;2023-02-10T06:36:36;24.70;;;14.05;;
75847;SDS011;65750;47.540;19.090;2023-02-10T06:39:03;24.43;;;14.40;;
75847;SDS011;65750;47.540;19.090;2023-02-10T06:41:31;21.08;;;13.13;;
75847;SDS011;65750;47.540;19.090;2023-02-10T06:44:00;21.80;;;14.05;;
75847;SDS011;65750;47.540;19.090;2023-02-10T06:46:27;24.42;;;14.50;;
75847;SDS011;65750;47.540;19.090;2023-02-10T06:48:54;23.10;;;14.32;;
75847;SDS011;65750;47.540;19.090;2023-02-10T06:51:21;24.67;;;15.73;;
75847;SDS011;65750;47.540;19.090;2023-02-10T06:53:48;24.10;;;15.68;;
75847;SDS011;65750;47.540;19.090;2023-02-10T06:56:16;24.02;;;15.60;;
75847;SDS011;65750;47.540;19.090;2023-02-10T06:58:43;29.30;;;16.73;;
75847;SDS011;65750;47.540;19.090;2023-02-10T07:01:13;26.98;;;17.15;;
75847;SDS011;65750;47.540;19.090;2023-02-10T07:03:43;27.37;;;16.80;;
75847;SDS011;65750;47.540;19.090;2023-02-10T07:06:11;30.80;;;17.33;;
75847;SDS011;65750;47.540;19.090;2023-02-10T07:08:38;27.50;;;16.98;;
75847;SDS011;65750;47.540;19.090;2023-02-10T07:11:05;25.67;;;16.15;;
75847;SDS011;65750;47.540;19.090;2023-02-10T07:13:32;27.00;;;16.58;;
75847;SDS011;65750;47.540;19.090;2023-02-10T07:15:59;30.33;;;16.87;;
75847;SDS011;65750;47.540;19.090;2023-02-10T07:18:28;32.08;;;17.20;;
75847;SDS011;65750;47.540;19.090;2023-02-10T07:20:55;29.75;;;18.02;;
75847;SDS011;65750;47.540;19.090;2023-02-10T07:23:22;69.22;;;23.15;;
75847;SDS011;65750;47.540;19.090;2023-02-10T07:25:50;78.60;;;27.62;;
75847;SDS011;65750;47.540;19.090;2023-02-10T07:28:17;65.23;;;23.50;;
75847;SDS011;65750;47.540;19.090;2023-02-10T07:30:45;77.10;;;25.25;;
75847;SDS011;65750;47.540;19.090;2023-02-10T07:33:12;70.35;;;25.15;;
75847;SDS011;65750;47.540;19.090;2023-02-10T07:35:41;75.90;;;25.50;;
75847;SDS011;65750;47.540;19.090;2023-02-10T07:38:09;75.80;;;25.10;;
75847;SDS011;65750;47.540;19.090;2023-02-10T07:40:36;70.80;;;23.67;;
75847;SDS011;65750;47.540;19.090;2023-02-10T07:43:03;62.67;;;23.30;;
75847;SDS011;65750;47.540;19.090;2023-02-10T07:45:31;66.45;;;23.42;;
75847;SDS011;65750;47.540;19.090;2023-02-10T07:47:58;64.87;;;22.90;;
75847;SDS011;65750;47.540;19.090;2023-02-10T07:50:26;64.85;;;23.17;;
75847;SDS011;65750;47.540;19.090;2023-02-10T07:52:54;61.83;;;23.40;;
75847;SDS011;65750;47.540;19.090;2023-02-10T07:55:22;63.85;;;21.73;;
75847;SDS011;65750;47.540;19.090;2023-02-10T07:57:49;56.30;;;23.42;;
75847;SDS011;65750;47.540;19.090;2023-02-10T08:00:18;56.22;;;22.17;;
75847;SDS011;65750;47.540;19.090;2023-02-10T08:02:45;60.10;;;22.52;;
75847;SDS011;65750;47.540;19.090;2023-02-10T08:05:13;52.30;;;21.97;;
75847;SDS011;65750;47.540;19.090;2023-02-10T08:07:40;57.47;;;21.90;;
75847;SDS011;65750;47.540;19.090;2023-02-10T08:10:09;53.47;;;21.73;;
75847;SDS011;65750;47.540;19.090;2023-02-10T08:12:36;52.65;;;21.85;;
75847;SDS011;65750;47.540;19.090;2023-02-10T08:15:04;46.60;;;21.33;;
75847;SDS011;65750;47.540;19.090;2023-02-10T08:17:31;55.67;;;22.27;;
75847;SDS011;65750;47.540;19.090;2023-02-10T08:19:59;54.05;;;22.48;;
75847;SDS011;65750;47.540;19.090;2023-02-10T08:22:26;49.42;;;21.83;;
75847;SDS011;65750;47.540;19.090;2023-02-10T08:24:54;50.72;;;20.65;;
75847;SDS011;65750;47.540;19.090;2023-02-10T08:27:22;50.03;;;21.02;;
75847;SDS011;65750;47.540;19.090;2023-02-10T08:29:49;49.60;;;21.70;;
75847;SDS011;65750;47.540;19.090;2023-02-10T08:32:16;48.63;;;21.02;;
75847;SDS011;65750;47.540;19.090;2023-02-10T08:34:45;45.78;;;20.55;;
75847;SDS011;65750;47.540;19.090;2023-02-10T08:37:12;47.50;;;20.48;;
75847;SDS011;65750;47.540;19.090;2023-02-10T08:39:40;47.47;;;19.90;;
75847;SDS011;65750;47.540;19.090;2023-02-10T08:42:07;46.07;;;19.63;;
75847;SDS011;65750;47.540;19.090;2023-02-10T08:44:36;43.47;;;19.70;;
75847;SDS011;65750;47.540;19.090;2023-02-10T08:47:03;43.72;;;20.05;;
75847;SDS011;65750;47.540;19.090;2023-02-10T08:49:31;42.90;;;20.45;;
75847;SDS011;65750;47.540;19.090;2023-02-10T08:51:58;45.85;;;20.10;;
75847;SDS011;65750;47.540;19.090;2023-02-10T08:54:25;41.33;;;20.30;;
75847;SDS011;65750;47.540;19.090;2023-02-10T08:56:52;39.10;;;19.52;;
75847;SDS011;65750;47.540;19.090;2023-02-10T08:59:20;43.13;;;19.48;;
75847;SDS011;65750;47.540;19.090;2023-02-10T09:01:48;42.42;;;19.27;;
75847;SDS011;65750;47.540;19.090;2023-02-10T09:04:16;43.92;;;19.95;;
75847;SDS011;65750;47.540;19.090;2023-02-10T09:06:43;37.30;;;18.30;;
75847;SDS011;65750;47.540;19.090;2023-02-10T09:09:11;39.78;;;18.65;;
75847;SDS011;65750;47.540;19.090;2023-02-10T09:11:39;37.85;;;19.02;;
75847;SDS011;65750;47.540;19.090;2023-02-10T09:14:07;39.35;;;18.40;;
75847;SDS011;65750;47.540;19.090;2023-02-10T09:16:35;38.80;;;18.67;;
75847;SDS011;65750;47.540;19.090;2023-02-10T09:19:03;37.67;;;19.03;;
75847;SDS011;65750;47.540;19.090;2023-02-10T09:21:31;39.78;;;19.17;;
75847;SDS011;65750;47.540;19.090;2023-02-10T09:23:58;33.70;;;17.83;;
75847;SDS011;65750;47.540;19.090;2023-02-10T09:26:25;38.15;;;17.83;;
75847;SDS011;65750;47.540;19.090;2023-02-10T09:28:53;36.30;;;19.05;;
75847;SDS011;65750;47.540;19.090;2023-02-10T09:31:20;35.33;;;17.20;;
75847;SDS011;65750;47.540;19.090;2023-02-10T09:33:47;37.53;;;17.87;;
75847;SDS011;65750;47.540;19.090;2023-02-10T09:36:16;35.15;;;17.83;;
75847;SDS011;65750;47.540;19.090;2023-02-10T09:38:44;38.20;;;18.67;;
75847;SDS011;65750;47.540;19.090;2023-02-10T09:41:14;33.35;;;18.37;;
75847;SDS011;65750;47.540;19.090;2023-02-10T09:43:53;31.80;;;17.47;;
75847;SDS011;65750;47.540;19.090;2023-02-10T09:46:29;33.10;;;18.00;;
75847;SDS011;65750;47.540;19.090;2023-02-10T09:49:18;32.80;;;17.85;;
75847;SDS011;65750;47.540;19.090;2023-02-10T09:51:58;33.85;;;17.70;;
75847;SDS011;65750;47.540;19.090;2023-02-10T09:54:30;33.60;;;18.50;;
75847;SDS011;65750;47.540;19.090;2023-02-10T09:57:00;34.87;;;17.60;;
75847;SDS011;65750;47.540;19.090;2023-02-10T09:59:28;35.13;;;18.50;;
75847;SDS011;65750;47.540;19.090;2023-02-10T10:01:56;33.00;;;17.55;;
75847;SDS011;65750;47.540;19.090;2023-02-10T10:04:26;33.13;;;18.23;;
75847;SDS011;65750;47.540;19.090;2023-02-10T10:06:55;32.72;;;17.40;;
75847;SDS011;65750;47.540;19.090;2023-02-10T10:09:32;36.37;;;17.93;;
75847;SDS011;65750;47.540;19.090;2023-02-10T10:12:04;32.50;;;17.52;;
75847;SDS011;65750;47.540;19.090;2023-02-10T10:14:33;31.55;;;16.75;;
75847;SDS011;65750;47.540;19.090;2023-02-10T10:20:07;32.50;;;16.90;;
75847;SDS011;65750;47.540;19.090;2023-02-10T10:22:47;31.90;;;16.87;;
75847;SDS011;65750;47.540;19.090;2023-02-10T10:25:26;31.42;;;17.25;;
75847;SDS011;65750;47.540;19.090;2023-02-10T10:28:07;29.67;;;16.30;;
75847;SDS011;65750;47.540;19.090;2023-02-10T10:30:45;29.70;;;15.85;;
75847;SDS011;65750;47.540;19.090;2023-02-10T10:33:20;33.20;;;15.93;;
75847;SDS011;65750;47.540;19.090;2023-02-10T10:35:48;30.30;;;16.43;;
75847;SDS011;65750;47.540;19.090;2023-02-10T10:38:17;27.73;;;15.80;;
75847;SDS011;65750;47.540;19.090;2023-02-10T10:40:47;27.62;;;15.85;;
75847;SDS011;65750;47.540;19.090;2023-02-10T10:43:17;30.10;;;15.98;;
75847;SDS011;65750;47.540;19.090;2023-02-10T10:45:48;27.90;;;15.35;;
75847;SDS011;65750;47.540;19.090;2023-02-10T10:48:18;26.93;;;14.60;;
75847;SDS011;65750;47.540;19.090;2023-02-10T10:50:49;28.35;;;15.32;;
75847;SDS011;65750;47.540;19.090;2023-02-10T10:53:19;28.95;;;14.85;;
75847;SDS011;65750;47.540;19.090;2023-02-10T10:55:51;27.52;;;15.38;;
75847;SDS011;65750;47.540;19.090;2023-02-10T10:58:23;24.17;;;14.77;;
75847;SDS011;65750;47.540;19.090;2023-02-10T11:00:54;26.13;;;14.57;;
75847;SDS011;65750;47.540;19.090;2023-02-10T11:03:22;28.15;;;14.68;;
75847;SDS011;65750;47.540;19.090;2023-02-10T11:05:57;25.00;;;14.80;;
75847;SDS011;65750;47.540;19.090;2023-02-10T11:08:29;26.65;;;14.60;;
75847;SDS011;65750;47.540;19.090;2023-02-10T11:10:57;24.73;;;13.75;;
75847;SDS011;65750;47.540;19.090;2023-02-10T11:13:27;26.63;;;14.00;;
75847;SDS011;65750;47.540;19.090;2023-02-10T11:15:59;27.45;;;14.98;;
75847;SDS011;65750;47.540;19.090;2023-02-10T11:18:28;24.37;;;14.32;;
75847;SDS011;65750;47.540;19.090;2023-02-10T11:20:57;23.80;;;14.38;;
75847;SDS011;65750;47.540;19.090;2023-02-10T11:23:25;23.40;;;13.18;;
75847;SDS011;65750;47.540;19.090;2023-02-10T11:25:58;24.23;;;14.10;;
75847;SDS011;65750;47.540;19.090;2023-02-10T11:28:28;23.42;;;13.25;;
75847;SDS011;65750;47.540;19.090;2023-02-10T11:30:57;24.23;;;13.95;;
75847;SDS011;65750;47.540;19.090;2023-02-10T11:33:28;24.00;;;13.30;;
75847;SDS011;65750;47.540;19.090;2023-02-10T11:35:58;23.08;;;12.85;;
75847;SDS011;65750;47.540;19.090;2023-02-10T11:38:29;24.27;;;13.03;;
75847;SDS011;65750;47.540;19.090;2023-02-10T11:40:58;22.00;;;12.85;;
75847;SDS011;65750;47.540;19.090;2023-02-10T11:43:28;22.25;;;13.18;;
75847;SDS011;65750;47.540;19.090;2023-02-10T11:45:58;21.37;;;12.48;;
75847;SDS011;65750;47.540;19.090;2023-02-10T11:48:26;25.23;;;12.80;;
75847;SDS011;65750;47.540;19.090;2023-02-10T11:51:01;21.97;;;12.47;;
75847;SDS011;65750;47.540;19.090;2023-02-10T11:53:31;21.08;;;12.45;;
75847;SDS011;65750;47.540;19.090;2023-02-10T11:56:02;21.02;;;12.88;;
75847;SDS011;65750;47.540;19.090;2023-02-10T12:01:48;20.95;;;12.82;;
75847;SDS011;65750;47.540;19.090;2023-02-10T12:07:24;20.17;;;12.07;;
75847;SDS011;65750;47.540;19.090;2023-02-10T12:09:57;20.60;;;12.02;;
75847;SDS011;65750;47.540;19.090;2023-02-10T12:12:29;20.15;;;11.50;;
75847;SDS011;65750;47.540;19.090;2023-02-10T12:15:02;20.40;;;11.15;;
75847;SDS011;65750;47.540;19.090;2023-02-10T12:17:33;18.50;;;10.87;;
75847;SDS011;65750;47.540;19.090;2023-02-10T12:20:09;21.30;;;11.35;;
75847;SDS011;65750;47.540;19.090;2023-02-10T12:22:57;18.77;;;9.88;;
75847;SDS011;65750;47.540;19.090;2023-02-10T12:25:36;17.02;;;9.60;;
75847;SDS011;65750;47.540;19.090;2023-02-10T12:28:13;16.15;;;9.27;;
75847;SDS011;65750;47.540;19.090;2023-02-10T12:30:45;16.53;;;9.03;;
75847;SDS011;65750;47.540;19.090;2023-02-10T12:33:21;16.92;;;8.57;;
75847;SDS011;65750;47.540;19.090;2023-02-10T12:36:00;16.15;;;8.75;;
75847;SDS011;65750;47.540;19.090;2023-02-10T12:38:39;14.68;;;7.95;;
75847;SDS011;65750;47.540;19.090;2023-02-10T12:41:15;15.10;;;8.90;;
75847;SDS011;65750;47.540;19.090;2023-02-10T12:43:53;15.27;;;7.93;;
75847;SDS011;65750;47.540;19.090;2023-02-10T12:46:26;15.18;;;8.18;;
75847;SDS011;65750;47.540;19.090;2023-02-10T12:49:04;13.70;;;7.20;;
75847;SDS011;65750;47.540;19.090;2023-02-10T12:51:43;11.70;;;7.30;;
75847;SDS011;65750;47.540;19.090;2023-02-10T12:54:16;13.95;;;7.32;;
75847;SDS011;65750;47.540;19.090;2023-02-10T12:56:46;14.30;;;7.50;;
75847;SDS011;65750;47.540;19.090;2023-02-10T12:59:18;140.10;;;36.53;;
75847;SDS011;65750;47.540;19.090;2023-02-10T13:01:49;379.95;;;147.82;;
75847;SDS011;65750;47.540;19.090;2023-02-10T13:04:19;398.25;;;157.90;;
75847;SDS011;65750;47.540;19.090;2023-02-10T13:06:50;631.87;;;276.40;;
75847;SDS011;65750;47.540;19.090;2023-02-10T13:09:23;624.83;;;250.67;;
75847;SDS011;65750;47.540;19.090;2023-02-10T13:11:58;649.78;;;241.38;;
75847;SDS011;65750;47.540;19.090;2023-02-10T13:14:33;584.42;;;213.00;;
75847;SDS011;65750;47.540;19.090;2023-02-10T13:17:02;493.30;;;178.07;;
75847;SDS011;65750;47.540;19.090;2023-02-10T13:19:31;443.30;;;161.25;;
75847;SDS011;65750;47.540;19.090;2023-02-10T13:22:05;397.83;;;142.60;;
75847;SDS011;65750;47.540;19.090;2023-02-10T13:24:36;367.33;;;133.57;;
75847;SDS011;65750;47.540;19.090;2023-02-10T13:27:12;324.75;;;119.62;;
75847;SDS011;65750;47.540;19.090;2023-02-10T13:29:50;304.13;;;111.35;;
75847;SDS011;65750;47.540;19.090;2023-02-10T13:32:29;271.23;;;103.18;;
75847;SDS011;65750;47.540;19.090;2023-02-10T13:35:04;251.90;;;93.20;;
75847;SDS011;65750;47.540;19.090;2023-02-10T13:37:34;236.82;;;83.78;;
75847;SDS011;65750;47.540;19.090;2023-02-10T13:40:05;215.85;;;78.60;;
75847;SDS011;65750;47.540;19.090;2023-02-10T13:42:45;205.15;;;75.62;;
75847;SDS011;65750;47.540;19.090;2023-02-10T13:45:16;191.80;;;71.55;;
75847;SDS011;65750;47.540;19.090;2023-02-10T13:47:49;171.07;;;64.73;;
75847;SDS011;65750;47.540;19.090;2023-02-10T13:50:23;158.63;;;59.40;;
75847;SDS011;65750;47.540;19.090;2023-02-10T13:52:53;154.35;;;56.47;;
75847;SDS011;65750;47.540;19.090;2023-02-10T13:55:26;148.40;;;54.17;;
75847;SDS011;65750;47.540;19.090;2023-02-10T13:58:24;132.60;;;51.15;;
75847;SDS011;65750;47.540;19.090;2023-02-10T14:01:00;123.33;;;46.43;;
75847;SDS011;65750;47.540;19.090;2023-02-10T14:03:28;130.07;;;46.08;;
75847;SDS011;65750;47.540;19.090;2023-02-10T14:05:57;109.03;;;43.13;;
75847;SDS011;65750;47.540;19.090;2023-02-10T14:08:28;98.50;;;40.30;;
75847;SDS011;65750;47.540;19.090;2023-02-10T14:10:58;100.10;;;38.35;;
75847;SDS011;65750;47.540;19.090;2023-02-10T14:13:27;87.87;;;36.43;;
75847;SDS011;65750;47.540;19.090;2023-02-10T14:16:00;84.10;;;35.08;;
75847;SDS011;65750;47.540;19.090;2023-02-10T14:18:29;83.15;;;34.45;;
75847;SDS011;65750;47.540;19.090;2023-02-10T14:20:58;75.55;;;30.88;;
75847;SDS011;65750;47.540;19.090;2023-02-10T14:23:27;64.97;;;27.67;;
75847;SDS011;65750;47.540;19.090;2023-02-10T14:25:58;63.43;;;25.90;;
75847;SDS011;65750;47.540;19.090;2023-02-10T14:28:27;66.12;;;24.67;;
75847;SDS011;65750;47.540;19.090;2023-02-10T14:31:00;56.70;;;22.95;;
75847;SDS011;65750;47.540;19.090;2023-02-10T14:33:32;49.95;;;21.58;;
75847;SDS011;65750;47.540;19.090;2023-02-10T14:36:01;51.37;;;20.23;;